This is the latest recevied weather packets stored in our database for station/object KB3UQE. If no packets are shown the sender has not sent any weather packets the latest 10 day(s).
| Time | Temp. | Humidity | Pressure | Rain* | Wind** | Luminosity | Snow |
|---|---|---|---|---|---|---|---|
| 1777289759 | 7.78° C | 55% | 1022.4 hPa | - | - | - | - |
| 1777287977 | 6.11° C | 56% | 1022.1 hPa | - | - | - | - |
| 1777287959 | 6.11° C | 56% | 1022.1 hPa | - | - | - | - |
| 1777286163 | 5.56° C | 56% | 1021.8 hPa | - | - | - | - |
| 1777284376 | 5° C | 57% | 1021.5 hPa | - | - | - | - |
| 1777284359 | 5° C | 57% | 1021.5 hPa | - | - | - | - |
| 1777282936 | 5° C | 57% | 1021.4 hPa | - | - | - | - |
| 1777282919 | 5° C | 57% | 1021.4 hPa | - | - | - | - |
| 1777281500 | 5° C | 57% | 1021.2 hPa | - | - | - | - |
| 1777281478 | 5° C | 57% | 1021.2 hPa | - | - | - | - |
| 1777280056 | 5° C | 57% | 1021.4 hPa | - | - | - | - |
| 1777280037 | 5° C | 57% | 1021.4 hPa | - | - | - | - |
| 1777278615 | 5° C | 57% | 1021.7 hPa | - | - | - | - |
| 1777278598 | 5° C | 57% | 1021.7 hPa | - | - | - | - |
| 1777277175 | 5.56° C | 57% | 1021.8 hPa | - | - | - | - |
| 1777277158 | 5.56° C | 57% | 1021.8 hPa | - | - | - | - |
| 1777275735 | 5.56° C | 57% | 1021.6 hPa | - | - | - | - |
| 1777275717 | 5.56° C | 57% | 1021.6 hPa | - | - | - | - |
| 1777274294 | 5.56° C | 57% | 1021.5 hPa | - | - | - | - |
| 1777274277 | 5.56° C | 57% | 1021.5 hPa | - | - | - | - |
| 1777273034 | 5.56° C | 57% | 1021.4 hPa | - | - | - | - |
| 1777273016 | 5.56° C | 57% | 1021.4 hPa | - | - | - | - |
| 1777271774 | 6.11° C | 57% | 1021.4 hPa | - | - | - | - |
| 1777271756 | 6.11° C | 57% | 1021.4 hPa | - | - | - | - |
| 1777270694 | 6.11° C | 56% | 1021.3 hPa | - | - | - | - |
* Rain since midnight (hover to see other rain measurements)
** Current wind speed in m/s (hover to see current wind gust speed)